^^
Saratoga-Weather Station Historical Data
Daily Summary for April 17, 2018 Units:  Both    English   Metric
Daily Weekly Monthly Yearly Custom
  High: Low: Average:
Temperature: 50.5 °F /  10.3 °C 37.4 °F /  3 °C 43.1 °F /  6.2 °C
Dew Point: 45.8 °F /  7.7 °C 30.8 °F /  -0.7 °C 34.4 °F /  1.3 °C
Humidity: 91% 51% 72%
Wind Speed: 7.8mph /  12.6km/h - 1.1mph /  1.8km/h
Wind Gust: 17.3mph /  27.8km/h - -
Wind- - WSW
Pressure: 29.60 in /  1002.3 hPa 29.42 in /  996.2 hPa -
Precipitation: 0.00 in /  0 mm    
Historical Graphs
 
 
Tabular Data for April 17, 2018
Time Temperature Dew Point Pressure Wind Wind Speed Wind Gust Humidity Rainfall Rate (Hourly) solar
00:03 48.3 °F /  9.1 °C 45.8 °F /  7.7 °C 29.42in /  996.2hPa SW 3.9mph /  6.3km/h 11.5mph /  18.5km/h 91% 0.00in /  0mm 0.0 W/m2
00:09 48.3 °F /  9.1 °C 45.8 °F /  7.7 °C 29.43in /  996.5hPa SW 3.4mph /  5.5km/h 6.9mph /  11.1km/h 91% 0.00in /  0mm 0.0 W/m2
00:14 48.1 °F /  8.9 °C 45.3 °F /  7.4 °C 29.43in /  996.5hPa SSW 4.3mph /  6.9km/h 8.1mph /  13km/h 90% 0.00in /  0mm 0.0 W/m2
00:19 47.8 °F /  8.8 °C 44.7 °F /  7.1 °C 29.43in /  996.5hPa SW 5.2mph /  8.4km/h 8.1mph /  13km/h 89% 0.00in /  0mm 0.0 W/m2
00:24 47.7 °F /  8.7 °C 44.0 °F /  6.7 °C 29.43in /  996.5hPa West 3.7mph /  6km/h 5.8mph /  9.3km/h 87% 0.00in /  0mm 0.0 W/m2
00:29 47.5 °F /  8.6 °C 43.5 °F /  6.4 °C 29.43in /  996.5hPa WSW 7.8mph /  12.6km/h 12.7mph /  20.4km/h 86% 0.00in /  0mm 0.0 W/m2
00:34 47.4 °F /  8.6 °C 43.1 °F /  6.2 °C 29.43in /  996.5hPa SW 3.3mph /  5.3km/h 4.6mph /  7.4km/h 85% 0.00in /  0mm 0.0 W/m2
00:39 47.3 °F /  8.5 °C 43.0 °F /  6.1 °C 29.43in /  996.5hPa SW 5.1mph /  8.2km/h 12.7mph /  20.4km/h 85% 0.00in /  0mm 0.0 W/m2
00:44 47.2 °F /  8.4 °C 42.9 °F /  6.1 °C 29.44in /  996.8hPa SW 3.4mph /  5.5km/h 5.8mph /  9.3km/h 85% 0.00in /  0mm 0.0 W/m2
00:49 47.1 °F /  8.4 °C 42.8 °F /  6 °C 29.44in /  996.8hPa SW 5.7mph /  9.2km/h 10.4mph /  16.7km/h 85% 0.00in /  0mm 0.0 W/m2
00:54 47.0 °F /  8.3 °C 42.4 °F /  5.8 °C 29.44in /  996.8hPa West 2.2mph /  3.5km/h 3.5mph /  5.6km/h 84% 0.00in /  0mm 0.0 W/m2
00:59 46.9 °F /  8.3 °C 42.3 °F /  5.7 °C 29.45in /  997.2hPa WSW 5.9mph /  9.5km/h 12.7mph /  20.4km/h 84% 0.00in /  0mm 0.0 W/m2
01:04 46.3 °F /  7.9 °C 41.1 °F /  5.1 °C 29.45in /  997.2hPa NW 5.7mph /  9.2km/h 11.5mph /  18.5km/h 82% 0.00in /  0mm 0.0 W/m2
01:09 45.7 °F /  7.6 °C 40.5 °F /  4.7 °C 29.45in /  997.2hPa WSW 3.2mph /  5.1km/h 6.0mph /  9.7km/h 82% 0.00in /  0mm 0.0 W/m2
01:14 44.8 °F /  7.1 °C 39.3 °F /  4.1 °C 29.46in /  997.5hPa West 2.4mph /  3.9km/h 11.5mph /  18.5km/h 81% 0.00in /  0mm 0.0 W/m2
01:19 44.6 °F /  7 °C 39.1 °F /  3.9 °C 29.46in /  997.5hPa WNW 1.0mph /  1.6km/h 5.8mph /  9.3km/h 81% 0.00in /  0mm 0.0 W/m2
01:24 44.2 °F /  6.8 °C 38.7 °F /  3.7 °C 29.46in /  997.5hPa NW 2.4mph /  3.9km/h 3.5mph /  5.6km/h 81% 0.00in /  0mm 0.0 W/m2
01:29 43.9 °F /  6.6 °C 38.8 °F /  3.8 °C 29.46in /  997.5hPa WNW 3.6mph /  5.8km/h 9.2mph /  14.8km/h 82% 0.00in /  0mm 0.0 W/m2
01:34 43.7 °F /  6.5 °C 38.6 °F /  3.7 °C 29.46in /  997.5hPa Calm   8.1mph /  13km/h 82% 0.00in /  0mm 0.0 W/m2
01:39 43.6 °F /  6.4 °C 38.2 °F /  3.4 °C 29.46in /  997.5hPa Calm   5.8mph /  9.3km/h 81% 0.00in /  0mm 0.0 W/m2
01:44 43.4 °F /  6.3 °C 38.3 °F /  3.5 °C 29.47in /  997.9hPa Calm     82% 0.00in /  0mm 0.0 W/m2
01:50 43.2 °F /  6.2 °C 37.8 °F /  3.2 °C 29.47in /  997.9hPa WSW 5.5mph /  8.9km/h 5.8mph /  9.3km/h 81% 0.00in /  0mm 0.0 W/m2
01:55 43.1 °F /  6.2 °C 37.7 °F /  3.2 °C 29.47in /  997.9hPa NW 0.4mph /  0.6km/h 4.6mph /  7.4km/h 81% 0.00in /  0mm 0.0 W/m2
02:00 43.0 °F /  6.1 °C 37.3 °F /  2.9 °C 29.47in /  997.9hPa WNW 0.1mph /  0.2km/h 10.4mph /  16.7km/h 80% 0.00in /  0mm 0.0 W/m2
02:05 42.9 °F /  6.1 °C 37.2 °F /  2.9 °C 29.48in /  998.2hPa West 3.2mph /  5.1km/h 8.1mph /  13km/h 80% 0.00in /  0mm 0.0 W/m2
02:10 42.8 °F /  6 °C 36.7 °F /  2.6 °C 29.48in /  998.2hPa Calm   1.0mph /  1.6km/h 79% 0.00in /  0mm 0.0 W/m2
02:15 42.7 °F /  5.9 °C 36.6 °F /  2.6 °C 29.48in /  998.2hPa Calm     79% 0.00in /  0mm 0.0 W/m2
02:20 42.5 °F /  5.8 °C 36.4 °F /  2.4 °C 29.47in /  997.9hPa Calm     79% 0.00in /  0mm 0.0 W/m2
02:25 42.4 °F /  5.8 °C 36.3 °F /  2.4 °C 29.48in /  998.2hPa Calm     79% 0.00in /  0mm 0.0 W/m2
02:30 42.3 °F /  5.7 °C 36.3 °F /  2.4 °C 29.48in /  998.2hPa Calm     79% 0.00in /  0mm 0.0 W/m2
02:35 42.2 °F /  5.7 °C 36.2 °F /  2.3 °C 29.48in /  998.2hPa Calm     79% 0.00in /  0mm 0.0 W/m2
02:40 42.2 °F /  5.7 °C 36.2 °F /  2.3 °C 29.47in /  997.9hPa Calm     79% 0.00in /  0mm 0.0 W/m2
02:45 42.1 °F /  5.6 °C 36.1 °F /  2.3 °C 29.47in /  997.9hPa Calm     79% 0.00in /  0mm 0.0 W/m2
02:50 42.0 °F /  5.6 °C 35.6 °F /  2 °C 29.47in /  997.9hPa Calm     78% 0.00in /  0mm 0.0 W/m2
02:55 41.9 °F /  5.5 °C 35.5 °F /  1.9 °C 29.47in /  997.9hPa Calm     78% 0.00in /  0mm 0.0 W/m2
03:00 41.9 °F /  5.5 °C 35.5 °F /  1.9 °C 29.47in /  997.9hPa Calm     78% 0.00in /  0mm 0.0 W/m2
03:05 41.8 °F /  5.4 °C 35.4 °F /  1.9 °C 29.47in /  997.9hPa Calm   1.2mph /  1.9km/h 78% 0.00in /  0mm 0.0 W/m2
03:10 41.8 °F /  5.4 °C 35.4 °F /  1.9 °C 29.47in /  997.9hPa Calm   1.2mph /  1.9km/h 78% 0.00in /  0mm 0.0 W/m2
03:15 41.7 °F /  5.4 °C 35.0 °F /  1.7 °C 29.47in /  997.9hPa Calm     77% 0.00in /  0mm 0.0 W/m2
03:20 41.7 °F /  5.4 °C 35.0 °F /  1.7 °C 29.47in /  997.9hPa Calm     77% 0.00in /  0mm 0.0 W/m2
03:25 41.6 °F /  5.3 °C 35.2 °F /  1.8 °C 29.47in /  997.9hPa WNW 0.1mph /  0.2km/h 1.0mph /  1.6km/h 78% 0.00in /  0mm 0.0 W/m2
03:30 41.6 °F /  5.3 °C 35.2 °F /  1.8 °C 29.47in /  997.9hPa Calm     78% 0.00in /  0mm 0.0 W/m2
03:36 41.5 °F /  5.3 °C 35.2 °F /  1.8 °C 29.48in /  998.2hPa Calm     78% 0.00in /  0mm 0.0 W/m2
03:41 41.5 °F /  5.3 °C 34.8 °F /  1.6 °C 29.48in /  998.2hPa Calm   1.2mph /  1.9km/h 77% 0.00in /  0mm 0.0 W/m2
03:46 41.5 °F /  5.3 °C 35.2 °F /  1.8 °C 29.48in /  998.2hPa Calm     78% 0.00in /  0mm 0.0 W/m2
03:51 41.5 °F /  5.3 °C 35.2 °F /  1.8 °C 29.48in /  998.2hPa Calm     78% 0.00in /  0mm 0.0 W/m2
03:56 41.5 °F /  5.3 °C 35.2 °F /  1.8 °C 29.48in /  998.2hPa West 0.1mph /  0.2km/h 1.2mph /  1.9km/h 78% 0.00in /  0mm 0.0 W/m2
04:01 41.5 °F /  5.3 °C 34.8 °F /  1.6 °C 29.49in /  998.5hPa Calm     77% 0.00in /  0mm 0.0 W/m2
04:06 41.5 °F /  5.3 °C 34.8 °F /  1.6 °C 29.49in /  998.5hPa Calm     77% 0.00in /  0mm 0.0 W/m2
04:11 41.5 °F /  5.3 °C 34.8 °F /  1.6 °C 29.49in /  998.5hPa Calm     77% 0.00in /  0mm 0.0 W/m2
04:16 41.5 °F /  5.3 °C 34.8 °F /  1.6 °C 29.49in /  998.5hPa Calm     77% 0.00in /  0mm 0.0 W/m2
04:21 41.5 °F /  5.3 °C 34.8 °F /  1.6 °C 29.49in /  998.5hPa Calm     77% 0.00in /  0mm 0.0 W/m2
04:26 41.5 °F /  5.3 °C 34.8 °F /  1.6 °C 29.49in /  998.5hPa Calm     77% 0.00in /  0mm 0.0 W/m2
04:31 41.5 °F /  5.3 °C 34.8 °F /  1.6 °C 29.48in /  998.2hPa Calm     77% 0.00in /  0mm 0.0 W/m2
04:36 41.5 °F /  5.3 °C 34.5 °F /  1.4 °C 29.48in /  998.2hPa Calm     76% 0.00in /  0mm 0.0 W/m2
04:41 41.5 °F /  5.3 °C 34.5 °F /  1.4 °C 29.48in /  998.2hPa Calm   1.2mph /  1.9km/h 76% 0.00in /  0mm 0.0 W/m2
04:46 41.6 °F /  5.3 °C 34.6 °F /  1.4 °C 29.48in /  998.2hPa Calm     76% 0.00in /  0mm 0.0 W/m2
04:51 41.6 °F /  5.3 °C 34.6 °F /  1.4 °C 29.48in /  998.2hPa Calm     76% 0.00in /  0mm 0.0 W/m2
04:56 41.6 °F /  5.3 °C 34.6 °F /  1.4 °C 29.48in /  998.2hPa WSW 0.1mph /  0.2km/h   76% 0.00in /  0mm 0.0 W/m2
05:01 41.6 °F /  5.3 °C 34.6 °F /  1.4 °C 29.48in /  998.2hPa Calm     76% 0.00in /  0mm 0.0 W/m2
05:06 41.6 °F /  5.3 °C 34.6 °F /  1.4 °C 29.48in /  998.2hPa Calm     76% 0.00in /  0mm 0.0 W/m2
05:11 41.6 °F /  5.3 °C 34.6 °F /  1.4 °C 29.48in /  998.2hPa Calm     76% 0.00in /  0mm 0.0 W/m2
05:16 41.6 °F /  5.3 °C 34.9 °F /  1.6 °C 29.48in /  998.2hPa Calm     77% 0.00in /  0mm 0.0 W/m2
05:21 41.5 °F /  5.3 °C 34.8 °F /  1.6 °C 29.48in /  998.2hPa Calm     77% 0.00in /  0mm 0.0 W/m2
05:26 41.4 °F /  5.2 °C 34.7 °F /  1.5 °C 29.48in /  998.2hPa SW 0.1mph /  0.2km/h 1.0mph /  1.6km/h 77% 0.00in /  0mm 0.0 W/m2
05:32 41.4 °F /  5.2 °C 34.7 °F /  1.5 °C 29.48in /  998.2hPa Calm     77% 0.00in /  0mm 0.0 W/m2
05:37 41.4 °F /  5.2 °C 35.1 °F /  1.7 °C 29.48in /  998.2hPa Calm     78% 0.00in /  0mm 0.0 W/m2
05:42 41.4 °F /  5.2 °C 35.1 °F /  1.7 °C 29.48in /  998.2hPa Calm     78% 0.00in /  0mm 0.0 W/m2
05:47 41.3 °F /  5.2 °C 35.0 °F /  1.7 °C 29.48in /  998.2hPa Calm     78% 0.00in /  0mm 0.0 W/m2
05:52 41.3 °F /  5.2 °C 35.0 °F /  1.7 °C 29.48in /  998.2hPa Calm     78% 0.00in /  0mm 0.0 W/m2
05:57 41.3 °F /  5.2 °C 35.3 °F /  1.8 °C 29.48in /  998.2hPa SW 0.3mph /  0.5km/h 2.3mph /  3.7km/h 79% 0.00in /  0mm 0.0 W/m2
06:02 41.3 °F /  5.2 °C 35.3 °F /  1.8 °C 29.48in /  998.2hPa Calm     79% 0.00in /  0mm 0.0 W/m2
06:07 41.2 °F /  5.1 °C 35.2 °F /  1.8 °C 29.48in /  998.2hPa Calm     79% 0.00in /  0mm 0.0 W/m2
06:12 41.1 °F /  5.1 °C 35.4 °F /  1.9 °C 29.49in /  998.5hPa Calm     80% 0.00in /  0mm 5.0 W/m2
06:17 41.0 °F /  5 °C 35.3 °F /  1.8 °C 29.49in /  998.5hPa Calm     80% 0.00in /  0mm 7.0 W/m2
06:22 40.9 °F /  4.9 °C 35.2 °F /  1.8 °C 29.49in /  998.5hPa Calm     80% 0.00in /  0mm 9.0 W/m2
06:27 40.8 °F /  4.9 °C 35.1 °F /  1.7 °C 29.49in /  998.5hPa Calm     80% 0.00in /  0mm 14.0 W/m2
06:32 40.7 °F /  4.8 °C 35.0 °F /  1.7 °C 29.49in /  998.5hPa Calm     80% 0.00in /  0mm 19.0 W/m2
06:37 40.7 °F /  4.8 °C 35.0 °F /  1.7 °C 29.49in /  998.5hPa WSW 0.1mph /  0.2km/h 1.0mph /  1.6km/h 80% 0.00in /  0mm 23.0 W/m2
06:42 40.7 °F /  4.8 °C 35.0 °F /  1.7 °C 29.49in /  998.5hPa Calm     80% 0.00in /  0mm 26.0 W/m2
06:47 40.7 °F /  4.8 °C 35.0 °F /  1.7 °C 29.50in /  998.9hPa Calm     80% 0.00in /  0mm 26.0 W/m2
06:52 40.7 °F /  4.8 °C 35.0 °F /  1.7 °C 29.50in /  998.9hPa Calm     80% 0.00in /  0mm 30.0 W/m2
06:57 40.7 °F /  4.8 °C 35.0 °F /  1.7 °C 29.50in /  998.9hPa Calm   1.2mph /  1.9km/h 80% 0.00in /  0mm 30.0 W/m2
07:02 40.7 °F /  4.8 °C 35.0 °F /  1.7 °C 29.50in /  998.9hPa Calm     80% 0.00in /  0mm 30.0 W/m2
07:07 40.7 °F /  4.8 °C 35.0 °F /  1.7 °C 29.50in /  998.9hPa WSW 0.2mph /  0.3km/h   80% 0.00in /  0mm 39.0 W/m2
07:12 40.7 °F /  4.8 °C 35.3 °F /  1.8 °C 29.50in /  998.9hPa Calm     81% 0.00in /  0mm 58.0 W/m2
07:17 40.8 °F /  4.9 °C 35.4 °F /  1.9 °C 29.50in /  998.9hPa Calm     81% 0.00in /  0mm 63.0 W/m2
07:23 40.8 °F /  4.9 °C 35.1 °F /  1.7 °C 29.50in /  998.9hPa West 0.3mph /  0.5km/h   80% 0.00in /  0mm 62.0 W/m2
07:28 40.9 °F /  4.9 °C 35.2 °F /  1.8 °C 29.50in /  998.9hPa Calm   6.9mph /  11.1km/h 80% 0.00in /  0mm 63.0 W/m2
07:33 40.9 °F /  4.9 °C 35.2 °F /  1.8 °C 29.50in /  998.9hPa SW 0.8mph /  1.3km/h 6.9mph /  11.1km/h 80% 0.00in /  0mm 69.0 W/m2
07:38 40.8 °F /  4.9 °C 34.8 °F /  1.6 °C 29.51in /  999.2hPa WSW 6.4mph /  10.3km/h 12.7mph /  20.4km/h 79% 0.00in /  0mm 81.0 W/m2
07:43 40.9 °F /  4.9 °C 35.2 °F /  1.8 °C 29.51in /  999.2hPa Calm     80% 0.00in /  0mm 100.0 W/m2
07:48 40.9 °F /  4.9 °C 35.2 °F /  1.8 °C 29.51in /  999.2hPa Calm     80% 0.00in /  0mm 104.0 W/m2
07:53 41.0 °F /  5 °C 35.6 °F /  2 °C 29.51in /  999.2hPa Calm   1.0mph /  1.6km/h 81% 0.00in /  0mm 118.0 W/m2
07:58 41.0 °F /  5 °C 35.6 °F /  2 °C 29.51in /  999.2hPa Calm     81% 0.00in /  0mm 120.0 W/m2
08:03 41.1 °F /  5.1 °C 35.7 °F /  2.1 °C 29.51in /  999.2hPa Calm   1.2mph /  1.9km/h 81% 0.00in /  0mm 132.0 W/m2
08:08 41.2 °F /  5.1 °C 35.8 °F /  2.1 °C 29.51in /  999.2hPa Calm   1.2mph /  1.9km/h 81% 0.00in /  0mm 135.0 W/m2
08:13 41.2 °F /  5.1 °C 35.8 °F /  2.1 °C 29.51in /  999.2hPa SSW 0.1mph /  0.2km/h 1.2mph /  1.9km/h 81% 0.00in /  0mm 142.0 W/m2
08:18 41.2 °F /  5.1 °C 35.8 °F /  2.1 °C 29.51in /  999.2hPa West 0.3mph /  0.5km/h 3.0mph /  4.8km/h 81% 0.00in /  0mm 162.0 W/m2
08:23 41.3 °F /  5.2 °C 35.9 °F /  2.2 °C 29.51in /  999.2hPa SW 0.3mph /  0.5km/h   81% 0.00in /  0mm 156.0 W/m2
08:28 41.4 °F /  5.2 °C 36.0 °F /  2.2 °C 29.51in /  999.2hPa WSW 0.1mph /  0.2km/h 6.9mph /  11.1km/h 81% 0.00in /  0mm 172.0 W/m2
08:33 41.6 °F /  5.3 °C 35.9 °F /  2.2 °C 29.51in /  999.2hPa WSW 0.1mph /  0.2km/h 3.5mph /  5.6km/h 80% 0.00in /  0mm 227.0 W/m2
08:38 41.7 °F /  5.4 °C 35.7 °F /  2.1 °C 29.51in /  999.2hPa WSW 0.3mph /  0.5km/h 8.0mph /  12.9km/h 79% 0.00in /  0mm 209.0 W/m2
08:43 42.1 °F /  5.6 °C 36.1 °F /  2.3 °C 29.51in /  999.2hPa SW 0.3mph /  0.5km/h 2.3mph /  3.7km/h 79% 0.00in /  0mm 227.0 W/m2
08:48 42.4 °F /  5.8 °C 36.0 °F /  2.2 °C 29.51in /  999.2hPa West 1.5mph /  2.4km/h 6.9mph /  11.1km/h 78% 0.00in /  0mm 174.0 W/m2
08:53 42.4 °F /  5.8 °C 36.0 °F /  2.2 °C 29.51in /  999.2hPa Calm   1.2mph /  1.9km/h 78% 0.00in /  0mm 179.0 W/m2
08:58 42.4 °F /  5.8 °C 35.7 °F /  2.1 °C 29.51in /  999.2hPa SW 0.4mph /  0.6km/h 11.0mph /  17.7km/h 77% 0.00in /  0mm 209.0 W/m2
09:03 42.3 °F /  5.7 °C 35.6 °F /  2 °C 29.51in /  999.2hPa WSW 4.7mph /  7.6km/h 4.7mph /  7.6km/h 77% 0.00in /  0mm 190.0 W/m2
09:08 42.4 °F /  5.8 °C 35.7 °F /  2.1 °C 29.51in /  999.2hPa Calm     77% 0.00in /  0mm 158.0 W/m2
09:14 42.3 °F /  5.7 °C 35.3 °F /  1.8 °C 29.52in /  999.5hPa SW 2.0mph /  3.2km/h 8.1mph /  13km/h 76% 0.00in /  0mm 165.0 W/m2
09:19 42.1 °F /  5.6 °C 35.1 °F /  1.7 °C 29.52in /  999.5hPa Calm   9.2mph /  14.8km/h 76% 0.00in /  0mm 188.0 W/m2
09:24 42.2 °F /  5.7 °C 35.2 °F /  1.8 °C 29.52in /  999.5hPa Calm   5.8mph /  9.3km/h 76% 0.00in /  0mm 197.0 W/m2
09:29 42.4 °F /  5.8 °C 35.4 °F /  1.9 °C 29.52in /  999.5hPa WSW 0.4mph /  0.6km/h 5.8mph /  9.3km/h 76% 0.00in /  0mm 232.0 W/m2
09:34 42.7 °F /  5.9 °C 35.7 °F /  2.1 °C 29.52in /  999.5hPa SW 0.3mph /  0.5km/h 4.0mph /  6.4km/h 76% 0.00in /  0mm 257.0 W/m2
09:39 42.7 °F /  5.9 °C 35.3 °F /  1.8 °C 29.52in /  999.5hPa West 0.4mph /  0.6km/h 9.2mph /  14.8km/h 75% 0.00in /  0mm 239.0 W/m2
09:44 42.8 °F /  6 °C 35.4 °F /  1.9 °C 29.52in /  999.5hPa Calm     75% 0.00in /  0mm 218.0 W/m2
09:49 42.9 °F /  6.1 °C 35.5 °F /  1.9 °C 29.52in /  999.5hPa Calm     75% 0.00in /  0mm 255.0 W/m2
09:54 43.2 °F /  6.2 °C 35.5 °F /  1.9 °C 29.52in /  999.5hPa WSW 1.4mph /  2.3km/h 5.0mph /  8km/h 74% 0.00in /  0mm 257.0 W/m2
09:59 43.3 °F /  6.3 °C 35.6 °F /  2 °C 29.52in /  999.5hPa SSW 2.4mph /  3.9km/h 8.1mph /  13km/h 74% 0.00in /  0mm 213.0 W/m2
10:04 43.3 °F /  6.3 °C 34.9 °F /  1.6 °C 29.52in /  999.5hPa SW 0.3mph /  0.5km/h 5.8mph /  9.3km/h 72% 0.00in /  0mm 225.0 W/m2
10:09 43.4 °F /  6.3 °C 34.6 °F /  1.4 °C 29.52in /  999.5hPa Calm   1.2mph /  1.9km/h 71% 0.00in /  0mm 218.0 W/m2
10:14 43.6 °F /  6.4 °C 34.1 °F /  1.2 °C 29.52in /  999.5hPa SSW 1.0mph /  1.6km/h 8.1mph /  13km/h 69% 0.00in /  0mm 225.0 W/m2
10:19 43.4 °F /  6.3 °C 33.9 °F /  1.1 °C 29.53in /  999.9hPa WSW 0.1mph /  0.2km/h 2.3mph /  3.7km/h 69% 0.00in /  0mm 265.0 W/m2
10:24 43.7 °F /  6.5 °C 34.6 °F /  1.4 °C 29.53in /  999.9hPa West 0.4mph /  0.6km/h 6.0mph /  9.7km/h 70% 0.00in /  0mm 323.0 W/m2
10:29 43.8 °F /  6.6 °C 34.3 °F /  1.3 °C 29.52in /  999.5hPa Calm   3.5mph /  5.6km/h 69% 0.00in /  0mm 341.0 W/m2
10:34 44.1 °F /  6.7 °C 34.6 °F /  1.4 °C 29.52in /  999.5hPa WSW 0.3mph /  0.5km/h 1.2mph /  1.9km/h 69% 0.00in /  0mm 311.0 W/m2
10:39 44.2 °F /  6.8 °C 34.3 °F /  1.3 °C 29.52in /  999.5hPa SW 0.5mph /  0.8km/h 2.3mph /  3.7km/h 68% 0.00in /  0mm 315.0 W/m2
10:44 44.2 °F /  6.8 °C 35.4 °F /  1.9 °C 29.52in /  999.5hPa SW 0.3mph /  0.5km/h 12.7mph /  20.4km/h 71% 0.00in /  0mm 311.0 W/m2
10:49 43.8 °F /  6.6 °C 34.6 °F /  1.4 °C 29.52in /  999.5hPa WSW 2.1mph /  3.4km/h 8.1mph /  13km/h 70% 0.00in /  0mm 411.0 W/m2
10:54 44.0 °F /  6.7 °C 34.8 °F /  1.6 °C 29.52in /  999.5hPa SW 0.4mph /  0.6km/h 6.0mph /  9.7km/h 70% 0.00in /  0mm 316.0 W/m2
10:59 44.3 °F /  6.8 °C 34.8 °F /  1.6 °C 29.52in /  999.5hPa West 1.7mph /  2.7km/h 10.0mph /  16.1km/h 69% 0.00in /  0mm 476.0 W/m2
11:05 44.8 °F /  7.1 °C 34.5 °F /  1.4 °C 29.52in /  999.5hPa West 4.6mph /  7.4km/h 9.2mph /  14.8km/h 67% 0.00in /  0mm 788.0 W/m2
11:10 44.7 °F /  7.1 °C 34.4 °F /  1.3 °C 29.52in /  999.5hPa WNW 1.4mph /  2.3km/h 11.5mph /  18.5km/h 67% 0.00in /  0mm 339.0 W/m2
11:15 44.9 °F /  7.2 °C 35.0 °F /  1.7 °C 29.52in /  999.5hPa Calm     68% 0.00in /  0mm 780.0 W/m2
11:20 45.4 °F /  7.4 °C 34.3 °F /  1.3 °C 29.52in /  999.5hPa WSW 0.2mph /  0.3km/h 3.5mph /  5.6km/h 65% 0.00in /  0mm 287.0 W/m2
11:25 45.5 °F /  7.5 °C 34.8 °F /  1.6 °C 29.51in /  999.2hPa WSW 0.3mph /  0.5km/h 3.5mph /  5.6km/h 66% 0.00in /  0mm 425.0 W/m2
11:30 45.6 °F /  7.6 °C 34.5 °F /  1.4 °C 29.52in /  999.5hPa WSW 2.7mph /  4.3km/h 9.2mph /  14.8km/h 65% 0.00in /  0mm 165.0 W/m2
11:35 44.9 °F /  7.2 °C 35.0 °F /  1.7 °C 29.51in /  999.2hPa WSW 2.6mph /  4.2km/h 10.4mph /  16.7km/h 68% 0.00in /  0mm 243.0 W/m2
11:40 44.3 °F /  6.8 °C 35.1 °F /  1.7 °C 29.51in /  999.2hPa WSW 0.7mph /  1.1km/h 3.0mph /  4.8km/h 70% 0.00in /  0mm 278.0 W/m2
11:45 44.3 °F /  6.8 °C 34.8 °F /  1.6 °C 29.51in /  999.2hPa West 0.8mph /  1.3km/h 9.2mph /  14.8km/h 69% 0.00in /  0mm 452.0 W/m2
11:50 44.7 °F /  7.1 °C 34.4 °F /  1.3 °C 29.51in /  999.2hPa Calm   3.5mph /  5.6km/h 67% 0.00in /  0mm 840.0 W/m2
11:55 44.7 °F /  7.1 °C 34.0 °F /  1.1 °C 29.50in /  998.9hPa West 1.0mph /  1.6km/h 6.9mph /  11.1km/h 66% 0.00in /  0mm 320.0 W/m2
12:00 45.5 °F /  7.5 °C 35.9 °F /  2.2 °C 29.50in /  998.9hPa Calm     69% 0.00in /  0mm 916.0 W/m2
12:05 46.3 °F /  7.9 °C 35.9 °F /  2.2 °C 29.50in /  998.9hPa Calm     67% 0.00in /  0mm 835.0 W/m2
12:10 46.9 °F /  8.3 °C 36.1 °F /  2.3 °C 29.50in /  998.9hPa South 0.1mph /  0.2km/h 2.3mph /  3.7km/h 66% 0.00in /  0mm 192.0 W/m2
12:15 46.7 °F /  8.2 °C 34.0 °F /  1.1 °C 29.50in /  998.9hPa WSW 0.2mph /  0.3km/h 3.5mph /  5.6km/h 61% 0.00in /  0mm 383.0 W/m2
12:20 46.5 °F /  8.1 °C 34.6 °F /  1.4 °C 29.50in /  998.9hPa SSW 5.0mph /  8km/h 11.5mph /  18.5km/h 63% 0.00in /  0mm 288.0 W/m2
12:25 46.1 °F /  7.8 °C 35.0 °F /  1.7 °C 29.50in /  998.9hPa SW 1.8mph /  2.9km/h 5.8mph /  9.3km/h 65% 0.00in /  0mm 388.0 W/m2
12:30 46.7 °F /  8.2 °C 35.6 °F /  2 °C 29.49in /  998.5hPa WSW 4.0mph /  6.4km/h 11.5mph /  18.5km/h 65% 0.00in /  0mm 450.0 W/m2
12:35 46.7 °F /  8.2 °C 34.8 °F /  1.6 °C 29.50in /  998.9hPa WSW 5.8mph /  9.3km/h 10.4mph /  16.7km/h 63% 0.00in /  0mm 387.0 W/m2
12:40 46.1 °F /  7.8 °C 33.4 °F /  0.8 °C 29.49in /  998.5hPa SW 0.1mph /  0.2km/h 9.2mph /  14.8km/h 61% 0.00in /  0mm 383.0 W/m2
12:45 46.3 °F /  7.9 °C 33.6 °F /  0.9 °C 29.49in /  998.5hPa West 0.3mph /  0.5km/h   61% 0.00in /  0mm 279.0 W/m2
12:51 46.6 °F /  8.1 °C 33.9 °F /  1.1 °C 29.49in /  998.5hPa Calm     61% 0.00in /  0mm 207.0 W/m2
12:56 46.7 °F /  8.2 °C 33.5 °F /  0.8 °C 29.49in /  998.5hPa Calm   1.2mph /  1.9km/h 60% 0.00in /  0mm 183.0 W/m2
13:01 46.5 °F /  8.1 °C 33.8 °F /  1 °C 29.49in /  998.5hPa Calm   9.2mph /  14.8km/h 61% 0.00in /  0mm 330.0 W/m2
13:06 46.8 °F /  8.2 °C 34.0 °F /  1.1 °C 29.49in /  998.5hPa Calm   8.1mph /  13km/h 61% 0.00in /  0mm 364.0 W/m2
13:11 47.1 °F /  8.4 °C 34.3 °F /  1.3 °C 29.49in /  998.5hPa West 3.4mph /  5.5km/h 10.4mph /  16.7km/h 61% 0.00in /  0mm 394.0 W/m2
13:16 47.2 °F /  8.4 °C 34.0 °F /  1.1 °C 29.48in /  998.2hPa Calm     60% 0.00in /  0mm 401.0 W/m2
13:21 47.9 °F /  8.8 °C 33.8 °F /  1 °C 29.48in /  998.2hPa SW 0.4mph /  0.6km/h 3.5mph /  5.6km/h 58% 0.00in /  0mm 1032.0 W/m2
13:26 48.3 °F /  9.1 °C 32.9 °F /  0.5 °C 29.48in /  998.2hPa West 2.3mph /  3.7km/h 9.0mph /  14.5km/h 55% 0.00in /  0mm 404.0 W/m2
13:31 48.2 °F /  9 °C 32.3 °F /  0.2 °C 29.48in /  998.2hPa SW 4.2mph /  6.8km/h 10.0mph /  16.1km/h 54% 0.00in /  0mm 227.0 W/m2
13:36 47.9 °F /  8.8 °C 32.0 °F /  0 °C 29.48in /  998.2hPa SSW 1.7mph /  2.7km/h 5.8mph /  9.3km/h 54% 0.00in /  0mm 287.0 W/m2
13:41 47.8 °F /  8.8 °C 31.5 °F /  -0.3 °C 29.47in /  997.9hPa West 4.5mph /  7.2km/h 8.1mph /  13km/h 53% 0.00in /  0mm 397.0 W/m2
13:46 48.0 °F /  8.9 °C 32.6 °F /  0.3 °C 29.47in /  997.9hPa WSW 2.3mph /  3.7km/h 13.0mph /  20.9km/h 55% 0.00in /  0mm 404.0 W/m2
13:51 48.3 °F /  9.1 °C 31.9 °F /  -0.1 °C 29.47in /  997.9hPa SSW 3.1mph /  5km/h 11.5mph /  18.5km/h 53% 0.00in /  0mm 345.0 W/m2
13:56 48.2 °F /  9 °C 32.3 °F /  0.2 °C 29.47in /  997.9hPa WSW 0.5mph /  0.8km/h   54% 0.00in /  0mm 239.0 W/m2
14:01 48.3 °F /  9.1 °C 32.4 °F /  0.2 °C 29.47in /  997.9hPa WSW 0.2mph /  0.3km/h 3.0mph /  4.8km/h 54% 0.00in /  0mm 199.0 W/m2
14:06 48.1 °F /  8.9 °C 31.8 °F /  -0.1 °C 29.47in /  997.9hPa West 5.3mph /  8.5km/h 13.8mph /  22.2km/h 53% 0.00in /  0mm 195.0 W/m2
14:11 48.0 °F /  8.9 °C 31.7 °F /  -0.2 °C 29.47in /  997.9hPa West 2.5mph /  4km/h 6.9mph /  11.1km/h 53% 0.00in /  0mm 257.0 W/m2
14:16 47.9 °F /  8.8 °C 31.6 °F /  -0.2 °C 29.47in /  997.9hPa SW 0.7mph /  1.1km/h 5.8mph /  9.3km/h 53% 0.00in /  0mm 244.0 W/m2
14:21 48.2 °F /  9 °C 31.9 °F /  -0.1 °C 29.47in /  997.9hPa Calm   13.8mph /  22.2km/h 53% 0.00in /  0mm 316.0 W/m2
14:26 48.5 °F /  9.2 °C 32.1 °F /  0.1 °C 29.47in /  997.9hPa SSW 2.8mph /  4.5km/h 12.7mph /  20.4km/h 53% 0.00in /  0mm 295.0 W/m2
14:31 48.7 °F /  9.3 °C 32.8 °F /  0.4 °C 29.47in /  997.9hPa SW 1.6mph /  2.6km/h 8.1mph /  13km/h 54% 0.00in /  0mm 439.0 W/m2
14:36 48.8 °F /  9.3 °C 32.9 °F /  0.5 °C 29.47in /  997.9hPa WSW 0.3mph /  0.5km/h 3.5mph /  5.6km/h 54% 0.00in /  0mm 431.0 W/m2
14:41 49.3 °F /  9.6 °C 32.9 °F /  0.5 °C 29.46in /  997.5hPa West 5.7mph /  9.2km/h 11.5mph /  18.5km/h 53% 0.00in /  0mm 475.0 W/m2
14:47 49.4 °F /  9.7 °C 32.5 °F /  0.3 °C 29.46in /  997.5hPa SW 1.9mph /  3.1km/h 10.4mph /  16.7km/h 52% 0.00in /  0mm 601.0 W/m2
14:52 50.3 °F /  10.2 °C 33.3 °F /  0.7 °C 29.46in /  997.5hPa Calm     52% 0.00in /  0mm 506.0 W/m2
14:57 50.5 °F /  10.3 °C 33.0 °F /  0.6 °C 29.46in /  997.5hPa WSW 6.2mph /  10km/h 13.8mph /  22.2km/h 51% 0.00in /  0mm 218.0 W/m2
15:02 49.6 °F /  9.8 °C 32.2 °F /  0.1 °C 29.46in /  997.5hPa NW 4.8mph /  7.7km/h 11.5mph /  18.5km/h 51% 0.00in /  0mm 232.0 W/m2
15:07 49.0 °F /  9.4 °C 31.6 °F /  -0.2 °C 29.46in /  997.5hPa WNW 2.2mph /  3.5km/h 8.0mph /  12.9km/h 51% 0.00in /  0mm 301.0 W/m2
15:12 48.6 °F /  9.2 °C 31.3 °F /  -0.4 °C 29.46in /  997.5hPa SW 4.9mph /  7.9km/h 11.5mph /  18.5km/h 51% 0.00in /  0mm 346.0 W/m2
15:17 48.5 °F /  9.2 °C 31.7 °F /  -0.2 °C 29.46in /  997.5hPa West 0.5mph /  0.8km/h 6.9mph /  11.1km/h 52% 0.00in /  0mm 355.0 W/m2
15:22 49.0 °F /  9.4 °C 33.5 °F /  0.8 °C 29.46in /  997.5hPa Calm   1.2mph /  1.9km/h 55% 0.00in /  0mm 355.0 W/m2
15:27 49.1 °F /  9.5 °C 31.7 °F /  -0.2 °C 29.46in /  997.5hPa WNW 3.7mph /  6km/h 10.4mph /  16.7km/h 51% 0.00in /  0mm 341.0 W/m2
15:32 48.9 °F /  9.4 °C 32.5 °F /  0.3 °C 29.47in /  997.9hPa WSW 3.3mph /  5.3km/h 8.1mph /  13km/h 53% 0.00in /  0mm 464.0 W/m2
15:37 49.1 °F /  9.5 °C 32.7 °F /  0.4 °C 29.46in /  997.5hPa WSW 0.7mph /  1.1km/h 11.5mph /  18.5km/h 53% 0.00in /  0mm 383.0 W/m2
15:42 49.2 °F /  9.6 °C 33.3 °F /  0.7 °C 29.47in /  997.9hPa West 2.9mph /  4.7km/h 7.0mph /  11.3km/h 54% 0.00in /  0mm 339.0 W/m2
15:47 48.6 °F /  9.2 °C 32.2 °F /  0.1 °C 29.47in /  997.9hPa WSW 4.1mph /  6.6km/h 11.5mph /  18.5km/h 53% 0.00in /  0mm 322.0 W/m2
15:52 48.2 °F /  9 °C 31.9 °F /  -0.1 °C 29.47in /  997.9hPa WSW 5.0mph /  8km/h 11.5mph /  18.5km/h 53% 0.00in /  0mm 214.0 W/m2
15:57 47.8 °F /  8.8 °C 31.9 °F /  -0.1 °C 29.47in /  997.9hPa South 1.9mph /  3.1km/h 3.5mph /  5.6km/h 54% 0.00in /  0mm 142.0 W/m2
16:02 47.3 °F /  8.5 °C 31.0 °F /  -0.6 °C 29.48in /  998.2hPa ESE 5.8mph /  9.3km/h 16.1mph /  25.9km/h 53% 0.00in /  0mm 90.0 W/m2
16:07 46.8 °F /  8.2 °C 31.5 °F /  -0.3 °C 29.48in /  998.2hPa WSW 1.9mph /  3.1km/h 6.9mph /  11.1km/h 55% 0.00in /  0mm 77.0 W/m2
16:12 46.6 °F /  8.1 °C 31.3 °F /  -0.4 °C 29.48in /  998.2hPa SW 6.5mph /  10.5km/h 16.0mph /  25.7km/h 55% 0.00in /  0mm 69.0 W/m2
16:17 46.1 °F /  7.8 °C 30.8 °F /  -0.7 °C 29.48in /  998.2hPa SW 4.2mph /  6.8km/h 15.0mph /  24.1km/h 55% 0.00in /  0mm 53.0 W/m2
16:22 45.9 °F /  7.7 °C 31.5 °F /  -0.3 °C 29.48in /  998.2hPa Calm   2.3mph /  3.7km/h 57% 0.00in /  0mm 60.0 W/m2
16:28 45.8 °F /  7.7 °C 31.4 °F /  -0.3 °C 29.48in /  998.2hPa SSW 3.9mph /  6.3km/h 9.2mph /  14.8km/h 57% 0.00in /  0mm 84.0 W/m2
16:33 45.7 °F /  7.6 °C 31.3 °F /  -0.4 °C 29.48in /  998.2hPa West 3.2mph /  5.1km/h 8.1mph /  13km/h 57% 0.00in /  0mm 91.0 W/m2
16:38 45.6 °F /  7.6 °C 30.8 °F /  -0.7 °C 29.49in /  998.5hPa WSW 1.3mph /  2.1km/h 9.2mph /  14.8km/h 56% 0.00in /  0mm 90.0 W/m2
16:43 45.7 °F /  7.6 °C 31.3 °F /  -0.4 °C 29.48in /  998.2hPa SW 3.0mph /  4.8km/h 8.1mph /  13km/h 57% 0.00in /  0mm 114.0 W/m2
16:48 45.7 °F /  7.6 °C 31.3 °F /  -0.4 °C 29.49in /  998.5hPa WSW 5.1mph /  8.2km/h 17.3mph /  27.8km/h 57% 0.00in /  0mm 95.0 W/m2
16:53 45.7 °F /  7.6 °C 31.8 °F /  -0.1 °C 29.49in /  998.5hPa WNW 1.2mph /  1.9km/h 8.0mph /  12.9km/h 58% 0.00in /  0mm 95.0 W/m2
16:58 45.8 °F /  7.7 °C 31.9 °F /  -0.1 °C 29.49in /  998.5hPa WNW 0.4mph /  0.6km/h 4.0mph /  6.4km/h 58% 0.00in /  0mm 86.0 W/m2
17:03 45.6 °F /  7.6 °C 31.2 °F /  -0.4 °C 29.49in /  998.5hPa WSW 5.2mph /  8.4km/h 17.3mph /  27.8km/h 57% 0.00in /  0mm 81.0 W/m2
17:08 45.4 °F /  7.4 °C 31.5 °F /  -0.3 °C 29.49in /  998.5hPa West 2.2mph /  3.5km/h 9.2mph /  14.8km/h 58% 0.00in /  0mm 90.0 W/m2
17:13 45.2 °F /  7.3 °C 31.7 °F /  -0.2 °C 29.49in /  998.5hPa SW 5.0mph /  8km/h 12.7mph /  20.4km/h 59% 0.00in /  0mm 81.0 W/m2
17:18 44.9 °F /  7.2 °C 31.8 °F /  -0.1 °C 29.49in /  998.5hPa WNW 0.7mph /  1.1km/h 9.2mph /  14.8km/h 60% 0.00in /  0mm 58.0 W/m2
17:23 44.3 °F /  6.8 °C 32.1 °F /  0.1 °C 29.49in /  998.5hPa WNW 1.4mph /  2.3km/h 11.5mph /  18.5km/h 62% 0.00in /  0mm 40.0 W/m2
17:28 44.0 °F /  6.7 °C 31.8 °F /  -0.1 °C 29.50in /  998.9hPa WNW 1.3mph /  2.1km/h 8.1mph /  13km/h 62% 0.00in /  0mm 44.0 W/m2
17:33 44.0 °F /  6.7 °C 32.6 °F /  0.3 °C 29.50in /  998.9hPa Calm     64% 0.00in /  0mm 35.0 W/m2
17:38 43.8 °F /  6.6 °C 32.4 °F /  0.2 °C 29.50in /  998.9hPa West 0.3mph /  0.5km/h 9.2mph /  14.8km/h 64% 0.00in /  0mm 33.0 W/m2
17:43 43.5 °F /  6.4 °C 32.9 °F /  0.5 °C 29.51in /  999.2hPa NW 0.6mph /  1km/h 8.0mph /  12.9km/h 66% 0.00in /  0mm 33.0 W/m2
17:48 43.1 °F /  6.2 °C 33.3 °F /  0.7 °C 29.51in /  999.2hPa WNW 0.7mph /  1.1km/h 4.6mph /  7.4km/h 68% 0.00in /  0mm 30.0 W/m2
17:53 42.6 °F /  5.9 °C 33.5 °F /  0.8 °C 29.51in /  999.2hPa Calm     70% 0.00in /  0mm 32.0 W/m2
17:58 42.5 °F /  5.8 °C 33.4 °F /  0.8 °C 29.51in /  999.2hPa WSW 1.1mph /  1.8km/h 3.0mph /  4.8km/h 70% 0.00in /  0mm 33.0 W/m2
18:03 42.4 °F /  5.8 °C 33.3 °F /  0.7 °C 29.51in /  999.2hPa WSW 1.1mph /  1.8km/h   70% 0.00in /  0mm 40.0 W/m2
18:08 42.4 °F /  5.8 °C 33.7 °F /  0.9 °C 29.51in /  999.2hPa Calm   3.5mph /  5.6km/h 71% 0.00in /  0mm 42.0 W/m2
18:14 42.2 °F /  5.7 °C 33.8 °F /  1 °C 29.51in /  999.2hPa Calm   2.3mph /  3.7km/h 72% 0.00in /  0mm 33.0 W/m2
18:19 42.1 °F /  5.6 °C 34.1 °F /  1.2 °C 29.51in /  999.2hPa Calm     73% 0.00in /  0mm 28.0 W/m2
18:24 42.1 °F /  5.6 °C 34.1 °F /  1.2 °C 29.52in /  999.5hPa Calm     73% 0.00in /  0mm 35.0 W/m2
18:29 42.0 °F /  5.6 °C 34.0 °F /  1.1 °C 29.52in /  999.5hPa WSW 1.2mph /  1.9km/h 5.0mph /  8km/h 73% 0.00in /  0mm 37.0 W/m2
18:34 41.9 °F /  5.5 °C 33.9 °F /  1.1 °C 29.52in /  999.5hPa Calm     73% 0.00in /  0mm 33.0 W/m2
18:39 41.9 °F /  5.5 °C 33.5 °F /  0.8 °C 29.52in /  999.5hPa Calm   1.2mph /  1.9km/h 72% 0.00in /  0mm 32.0 W/m2
18:44 41.8 °F /  5.4 °C 33.4 °F /  0.8 °C 29.52in /  999.5hPa Calm     72% 0.00in /  0mm 28.0 W/m2
18:49 41.9 °F /  5.5 °C 33.5 °F /  0.8 °C 29.53in /  999.9hPa Calm   3.5mph /  5.6km/h 72% 0.00in /  0mm 25.0 W/m2
18:54 42.0 °F /  5.6 °C 33.6 °F /  0.9 °C 29.53in /  999.9hPa Calm     72% 0.00in /  0mm 21.0 W/m2
18:59 42.0 °F /  5.6 °C 33.3 °F /  0.7 °C 29.53in /  999.9hPa Calm     71% 0.00in /  0mm 23.0 W/m2
19:04 41.9 °F /  5.5 °C 32.8 °F /  0.4 °C 29.53in /  999.9hPa Calm     70% 0.00in /  0mm 23.0 W/m2
19:09 41.9 °F /  5.5 °C 32.5 °F /  0.3 °C 29.53in /  999.9hPa WSW 0.1mph /  0.2km/h 2.3mph /  3.7km/h 69% 0.00in /  0mm 18.0 W/m2
19:14 41.9 °F /  5.5 °C 31.7 °F /  -0.2 °C 29.53in /  999.9hPa Calm     67% 0.00in /  0mm 12.0 W/m2
19:19 41.8 °F /  5.4 °C 31.6 °F /  -0.2 °C 29.53in /  999.9hPa West 0.5mph /  0.8km/h 7.0mph /  11.3km/h 67% 0.00in /  0mm 7.0 W/m2
19:24 41.8 °F /  5.4 °C 31.3 °F /  -0.4 °C 29.54in /  1000.2hPa Calm     66% 0.00in /  0mm 5.0 W/m2
19:29 41.7 °F /  5.4 °C 31.5 °F /  -0.3 °C 29.54in /  1000.2hPa Calm     67% 0.00in /  0mm 0.0 W/m2
19:34 41.6 °F /  5.3 °C 31.4 °F /  -0.3 °C 29.54in /  1000.2hPa Calm   3.5mph /  5.6km/h 67% 0.00in /  0mm 0.0 W/m2
19:39 41.5 °F /  5.3 °C 32.1 °F /  0.1 °C 29.54in /  1000.2hPa Calm   3.5mph /  5.6km/h 69% 0.00in /  0mm 0.0 W/m2
19:44 41.4 °F /  5.2 °C 32.3 °F /  0.2 °C 29.55in /  1000.6hPa Calm   3.5mph /  5.6km/h 70% 0.00in /  0mm 0.0 W/m2
19:49 41.2 °F /  5.1 °C 32.5 °F /  0.3 °C 29.55in /  1000.6hPa WSW 0.6mph /  1km/h 11.5mph /  18.5km/h 71% 0.00in /  0mm 0.0 W/m2
19:54 40.7 °F /  4.8 °C 32.7 °F /  0.4 °C 29.55in /  1000.6hPa WSW 1.1mph /  1.8km/h 6.9mph /  11.1km/h 73% 0.00in /  0mm 0.0 W/m2
19:59 40.4 °F /  4.7 °C 32.4 °F /  0.2 °C 29.56in /  1000.9hPa West 1.4mph /  2.3km/h 3.5mph /  5.6km/h 73% 0.00in /  0mm 0.0 W/m2
20:04 40.2 °F /  4.6 °C 32.6 °F /  0.3 °C 29.56in /  1000.9hPa WSW 0.1mph /  0.2km/h 2.3mph /  3.7km/h 74% 0.00in /  0mm 0.0 W/m2
20:10 40.1 °F /  4.5 °C 32.8 °F /  0.4 °C 29.56in /  1000.9hPa West 1.3mph /  2.1km/h 2.3mph /  3.7km/h 75% 0.00in /  0mm 0.0 W/m2
20:15 40.0 °F /  4.4 °C 32.7 °F /  0.4 °C 29.56in /  1000.9hPa Calm   10.4mph /  16.7km/h 75% 0.00in /  0mm 0.0 W/m2
20:20 39.9 °F /  4.4 °C 32.6 °F /  0.3 °C 29.56in /  1000.9hPa Calm   1.2mph /  1.9km/h 75% 0.00in /  0mm 0.0 W/m2
20:25 39.9 °F /  4.4 °C 32.6 °F /  0.3 °C 29.56in /  1000.9hPa Calm     75% 0.00in /  0mm 0.0 W/m2
20:30 39.8 °F /  4.3 °C 32.5 °F /  0.3 °C 29.56in /  1000.9hPa West 0.2mph /  0.3km/h 3.0mph /  4.8km/h 75% 0.00in /  0mm 0.0 W/m2
20:35 39.7 °F /  4.3 °C 32.4 °F /  0.2 °C 29.57in /  1001.2hPa West 0.1mph /  0.2km/h 7.0mph /  11.3km/h 75% 0.00in /  0mm 0.0 W/m2
20:40 39.7 °F /  4.3 °C 32.4 °F /  0.2 °C 29.57in /  1001.2hPa Calm     75% 0.00in /  0mm 0.0 W/m2
20:45 39.7 °F /  4.3 °C 32.4 °F /  0.2 °C 29.57in /  1001.2hPa West 0.1mph /  0.2km/h 1.2mph /  1.9km/h 75% 0.00in /  0mm 0.0 W/m2
20:50 39.6 °F /  4.2 °C 32.3 °F /  0.2 °C 29.57in /  1001.2hPa Calm   1.2mph /  1.9km/h 75% 0.00in /  0mm 0.0 W/m2
20:55 39.6 °F /  4.2 °C 32.3 °F /  0.2 °C 29.57in /  1001.2hPa Calm     75% 0.00in /  0mm 0.0 W/m2
21:00 39.6 °F /  4.2 °C 32.3 °F /  0.2 °C 29.57in /  1001.2hPa Calm     75% 0.00in /  0mm 0.0 W/m2
21:05 39.6 °F /  4.2 °C 32.3 °F /  0.2 °C 29.57in /  1001.2hPa Calm   1.2mph /  1.9km/h 75% 0.00in /  0mm 0.0 W/m2
21:10 39.5 °F /  4.2 °C 32.2 °F /  0.1 °C 29.57in /  1001.2hPa Calm     75% 0.00in /  0mm 0.0 W/m2
21:15 39.5 °F /  4.2 °C 32.2 °F /  0.1 °C 29.58in /  1001.6hPa Calm     75% 0.00in /  0mm 0.0 W/m2
21:20 39.5 °F /  4.2 °C 32.2 °F /  0.1 °C 29.57in /  1001.2hPa Calm     75% 0.00in /  0mm 0.0 W/m2
21:25 39.4 °F /  4.1 °C 32.1 °F /  0.1 °C 29.57in /  1001.2hPa Calm     75% 0.00in /  0mm 0.0 W/m2
21:30 39.5 °F /  4.2 °C 32.2 °F /  0.1 °C 29.58in /  1001.6hPa Calm     75% 0.00in /  0mm 0.0 W/m2
21:35 39.5 °F /  4.2 °C 32.2 °F /  0.1 °C 29.58in /  1001.6hPa Calm     75% 0.00in /  0mm 0.0 W/m2
21:40 39.4 °F /  4.1 °C 32.1 °F /  0.1 °C 29.58in /  1001.6hPa Calm     75% 0.00in /  0mm 0.0 W/m2
21:45 39.4 °F /  4.1 °C 32.1 °F /  0.1 °C 29.58in /  1001.6hPa Calm     75% 0.00in /  0mm 0.0 W/m2
21:50 39.5 °F /  4.2 °C 32.2 °F /  0.1 °C 29.58in /  1001.6hPa WSW 0.1mph /  0.2km/h 2.3mph /  3.7km/h 75% 0.00in /  0mm 0.0 W/m2
21:56 39.5 °F /  4.2 °C 31.9 °F /  -0.1 °C 29.58in /  1001.6hPa Calm     74% 0.00in /  0mm 0.0 W/m2
22:01 39.5 °F /  4.2 °C 31.9 °F /  -0.1 °C 29.58in /  1001.6hPa Calm     74% 0.00in /  0mm 0.0 W/m2
22:06 39.1 °F /  3.9 °C 32.2 °F /  0.1 °C 29.58in /  1001.6hPa WSW 0.9mph /  1.4km/h 5.0mph /  8km/h 76% 0.00in /  0mm 0.0 W/m2
22:11 38.8 °F /  3.8 °C 32.2 °F /  0.1 °C 29.58in /  1001.6hPa WSW 0.4mph /  0.6km/h 3.5mph /  5.6km/h 77% 0.00in /  0mm 0.0 W/m2
22:16 38.6 °F /  3.7 °C 32.0 °F /  0 °C 29.58in /  1001.6hPa South 2.1mph /  3.4km/h 10.4mph /  16.7km/h 77% 0.00in /  0mm 0.0 W/m2
22:21 38.4 °F /  3.6 °C 32.1 °F /  0.1 °C 29.58in /  1001.6hPa Calm   1.2mph /  1.9km/h 78% 0.00in /  0mm 0.0 W/m2
22:26 38.3 °F /  3.5 °C 32.4 °F /  0.2 °C 29.58in /  1001.6hPa WSW 0.9mph /  1.4km/h 5.8mph /  9.3km/h 79% 0.00in /  0mm 0.0 W/m2
22:31 38.2 °F /  3.4 °C 32.3 °F /  0.2 °C 29.58in /  1001.6hPa Calm     79% 0.00in /  0mm 0.0 W/m2
22:36 38.2 °F /  3.4 °C 32.3 °F /  0.2 °C 29.58in /  1001.6hPa SSW 0.1mph /  0.2km/h 8.1mph /  13km/h 79% 0.00in /  0mm 0.0 W/m2
22:41 38.1 °F /  3.4 °C 32.2 °F /  0.1 °C 29.58in /  1001.6hPa Calm     79% 0.00in /  0mm 0.0 W/m2
22:46 38.0 °F /  3.3 °C 32.1 °F /  0.1 °C 29.58in /  1001.6hPa Calm   4.6mph /  7.4km/h 79% 0.00in /  0mm 0.0 W/m2
22:51 38.0 °F /  3.3 °C 32.1 °F /  0.1 °C 29.59in /  1001.9hPa WNW 2.9mph /  4.7km/h 9.2mph /  14.8km/h 79% 0.00in /  0mm 0.0 W/m2
22:56 37.9 °F /  3.3 °C 32.0 °F /  0 °C 29.58in /  1001.6hPa Calm   4.6mph /  7.4km/h 79% 0.00in /  0mm 0.0 W/m2
23:01 37.8 °F /  3.2 °C 31.9 °F /  -0.1 °C 29.58in /  1001.6hPa Calm   5.8mph /  9.3km/h 79% 0.00in /  0mm 0.0 W/m2
23:06 37.7 °F /  3.2 °C 32.1 °F /  0.1 °C 29.59in /  1001.9hPa WSW 0.1mph /  0.2km/h 1.2mph /  1.9km/h 80% 0.00in /  0mm 0.0 W/m2
23:11 37.6 °F /  3.1 °C 31.7 °F /  -0.2 °C 29.59in /  1001.9hPa Calm   4.6mph /  7.4km/h 79% 0.00in /  0mm 0.0 W/m2
23:16 37.5 °F /  3.1 °C 31.6 °F /  -0.2 °C 29.59in /  1001.9hPa SW 1.7mph /  2.7km/h 5.8mph /  9.3km/h 79% 0.00in /  0mm 0.0 W/m2
23:21 37.5 °F /  3.1 °C 31.9 °F /  -0.1 °C 29.59in /  1001.9hPa Calm     80% 0.00in /  0mm 0.0 W/m2
23:26 37.4 °F /  3 °C 31.8 °F /  -0.1 °C 29.59in /  1001.9hPa Calm     80% 0.00in /  0mm 0.0 W/m2
23:31 37.4 °F /  3 °C 31.8 °F /  -0.1 °C 29.59in /  1001.9hPa West 3.4mph /  5.5km/h 8.1mph /  13km/h 80% 0.00in /  0mm 0.0 W/m2
23:36 37.4 °F /  3 °C 31.8 °F /  -0.1 °C 29.60in /  1002.3hPa WSW 0.1mph /  0.2km/h   80% 0.00in /  0mm 0.0 W/m2
23:41 37.4 °F /  3 °C 31.8 °F /  -0.1 °C 29.60in /  1002.3hPa Calm     80% 0.00in /  0mm 0.0 W/m2
23:47 37.4 °F /  3 °C 31.8 °F /  -0.1 °C 29.60in /  1002.3hPa WSW 0.9mph /  1.4km/h   80% 0.00in /  0mm 0.0 W/m2
23:52 37.4 °F /  3 °C 31.8 °F /  -0.1 °C 29.60in /  1002.3hPa Calm     80% 0.00in /  0mm 0.0 W/m2
23:57 37.4 °F /  3 °C 31.8 °F /  -0.1 °C 29.60in /  1002.3hPa West 1.5mph /  2.4km/h 6.9mph /  11.1km/h 80% 0.00in /  0mm 0.0 W/m2
Juneau County Weather
Compliments of Weather Underground - 3 mb